Wilmington, Ohio
Current Conditions -  °F | °C
As of 5:54 AM on Friday 19 Dec 2014 (Local Time) from KILN Reporting Station
Overcast Overcast  
Wind Chill: 19°   Ceiling: 1600
Heat Index: 26°   Visibility: 9mi
Dew Point: 19°   Wind: 6mph
Humidity: 75%   Direction: 340°NNW
Pressure: 30.23"   Gusts: NA
Location:  39.45°N, 83.83°W
Report Text: KILN 191054Z AUTO 34005KT 9SM OVC016 M03/M07 A3023 RMK AO2 SLP266 T10331072
Loading
Personal Weather Stations






























Interactive Weather Map New forecast layout! Learn more

10-Day Weather Forecast

Advertisements
Track Severe Weather on mobile